Time;durP1;ratioP1;P1;durP2;ratioP2;P2;SDS_P1;SDS_P2;PMS_P1;PMS_P2;Temp;Humidity;BMP_temperature;BMP_pressure;BME280_temperature;BME280_humidity;BME280_pressure;Samples;Min_cycle;Max_cycle;Signal;HPM_P1;HPM_P2
2022/10/17 00:02:16;;;;;;;83.47;35.50;;;;;;;;;;6286775;28;20102;-64
2022/10/17 00:05:17;;;;;;;87.57;33.75;;;;;;;;;;6287513;28;21066;-64
2022/10/17 00:08:18;;;;;;;81.65;32.25;;;;;;;;;;6287221;28;20040;-64
2022/10/17 00:11:21;;;;;;;79.50;31.95;;;;;;;;;;6286402;28;20044;-64
2022/10/17 00:14:22;;;;;;;77.97;30.60;;;;;;;;;;6288309;28;20047;-64
2022/10/17 00:17:22;;;;;;;77.88;31.08;;;;;;;;;;6285765;28;20072;-64
2022/10/17 00:20:23;;;;;;;81.82;34.03;;;;;;;;;;6285685;28;20055;-64
2022/10/17 00:23:26;;;;;;;91.05;36.33;;;;;;;;;;6287545;28;20447;-64
2022/10/17 00:26:29;;;;;;;92.97;35.30;;;;;;;;;;6289763;28;20499;-64
2022/10/17 00:29:30;;;;;;;87.75;36.33;;;;;;;;;;6286745;28;20086;-64
2022/10/17 00:32:31;;;;;;;89.53;33.75;;;;;;;;;;6286033;28;20562;-64
2022/10/17 00:35:32;;;;;;;74.70;31.30;;;;;;;;;;6290833;28;20135;-64
2022/10/17 00:38:32;;;;;;;80.85;31.35;;;;;;;;;;6288213;28;20459;-64
2022/10/17 00:41:33;;;;;;;78.75;31.00;;;;;;;;;;6283551;28;20102;-64
2022/10/17 00:44:33;;;;;;;86.15;32.58;;;;;;;;;;6290645;28;20430;-64
2022/10/17 00:47:35;;;;;;;79.30;33.72;;;;;;;;;;6286582;28;20044;-64
2022/10/17 00:50:38;;;;;;;77.70;31.88;;;;;;;;;;6285799;28;20056;-64
2022/10/17 00:53:39;;;;;;;81.60;32.03;;;;;;;;;;6283820;28;20124;-64
2022/10/17 00:56:40;;;;;;;81.63;32.88;;;;;;;;;;6287049;28;20526;-64
2022/10/17 00:59:42;;;;;;;82.15;32.72;;;;;;;;;;6287296;28;20052;-64
2022/10/17 01:02:44;;;;;;;79.38;32.25;;;;;;;;;;6284602;28;20046;-64
2022/10/17 01:05:45;;;;;;;75.68;30.27;;;;;;;;;;6284401;28;20061;-64
2022/10/17 01:08:45;;;;;;;87.07;34.25;;;;;;;;;;6283203;28;20055;-64
2022/10/17 01:12:02;;;;;;;80.53;33.45;;;;;;;;;;6283920;28;20053;-64
2022/10/17 01:15:15;;;;;;;79.05;32.03;;;;;;;;;;6283587;28;20475;-64
2022/10/17 01:18:18;;;;;;;108.70;41.65;;;;;;;;;;6285906;28;20049;-64
2022/10/17 01:21:26;;;;;;;94.78;36.45;;;;;;;;;;6290073;28;20056;-64
2022/10/17 01:24:54;;;;;;;96.47;36.20;;;;;;;;;;6287088;28;20051;-64
2022/10/17 01:27:54;;;;;;;99.10;39.95;;;;;;;;;;6288649;28;20429;-64
2022/10/17 01:31:03;;;;;;;94.38;37.92;;;;;;;;;;6284995;28;20056;-64
2022/10/17 01:34:17;;;;;;;84.80;34.22;;;;;;;;;;6285895;28;20044;-64
2022/10/17 01:37:48;;;;;;;106.65;41.63;;;;;;;;;;6288484;28;20091;-64
2022/10/17 01:41:05;;;;;;;102.35;42.25;;;;;;;;;;6277433;28;20529;-64
2022/10/17 01:44:43;;;;;;;95.43;39.67;;;;;;;;;;6289873;28;20123;-64
2022/10/17 01:47:46;;;;;;;94.53;38.80;;;;;;;;;;6285909;28;20055;-64
2022/10/17 01:50:53;;;;;;;98.80;39.40;;;;;;;;;;6285060;28;20044;-64
2022/10/17 01:54:02;;;;;;;98.72;39.75;;;;;;;;;;6286193;28;20158;-65
2022/10/17 01:57:08;;;;;;;101.95;42.50;;;;;;;;;;6290476;28;20079;-64
2022/10/17 02:00:13;;;;;;;100.65;41.70;;;;;;;;;;6285761;28;20049;-64
2022/10/17 02:03:18;;;;;;;80.75;35.90;;;;;;;;;;6283234;28;20044;-64
2022/10/17 02:06:18;;;;;;;80.25;33.65;;;;;;;;;;6282831;28;20403;-64
2022/10/17 02:09:22;;;;;;;82.05;33.13;;;;;;;;;;6281773;28;20121;-64
2022/10/17 02:12:52;;;;;;;85.82;35.65;;;;;;;;;;6282021;28;20049;-64
2022/10/17 02:16:12;;;;;;;99.85;39.58;;;;;;;;;;6283852;28;20120;-64
2022/10/17 02:19:38;;;;;;;95.78;40.90;;;;;;;;;;6287678;28;20098;-64
2022/10/17 02:22:54;;;;;;;108.45;44.28;;;;;;;;;;6282972;28;20970;-64
2022/10/17 02:26:20;;;;;;;104.32;42.65;;;;;;;;;;6284305;28;20059;-63
2022/10/17 02:29:30;;;;;;;105.53;41.55;;;;;;;;;;6286462;28;20147;-64
2022/10/17 02:33:01;;;;;;;96.03;39.80;;;;;;;;;;6288374;28;20412;-64
2022/10/17 02:36:07;;;;;;;86.77;34.47;;;;;;;;;;6288819;28;20083;-64
2022/10/17 02:39:09;;;;;;;95.82;39.30;;;;;;;;;;6287898;28;20301;-64
2022/10/17 02:42:11;;;;;;;90.03;37.57;;;;;;;;;;6290535;28;20139;-64
2022/10/17 02:45:13;;;;;;;91.28;35.13;;;;;;;;;;6291880;28;20087;-64
2022/10/17 02:48:26;;;;;;;102.45;39.75;;;;;;;;;;6293556;28;20560;-64
2022/10/17 02:51:36;;;;;;;100.10;39.88;;;;;;;;;;6288796;28;20047;-64
2022/10/17 02:54:50;;;;;;;103.05;43.72;;;;;;;;;;6285867;28;20040;-63
2022/10/17 02:57:55;;;;;;;99.35;41.35;;;;;;;;;;6288482;28;20047;-64
2022/10/17 03:00:56;;;;;;;91.47;36.60;;;;;;;;;;6292948;28;20780;-64
2022/10/17 03:04:07;;;;;;;87.03;37.65;;;;;;;;;;6291474;28;20102;-64
2022/10/17 03:07:08;;;;;;;97.60;40.40;;;;;;;;;;6290205;28;20178;-64
2022/10/17 03:10:09;;;;;;;90.13;36.60;;;;;;;;;;6293409;28;20045;-64
2022/10/17 03:13:09;;;;;;;100.25;36.90;;;;;;;;;;6291486;28;20049;-64
2022/10/17 03:16:10;;;;;;;93.78;36.22;;;;;;;;;;6287228;28;20040;-64
2022/10/17 03:19:11;;;;;;;81.35;34.55;;;;;;;;;;6288339;28;20052;-64
2022/10/17 03:22:11;;;;;;;90.75;37.15;;;;;;;;;;6288743;28;20048;-64
2022/10/17 03:25:12;;;;;;;96.32;35.38;;;;;;;;;;6285307;28;20054;-64
2022/10/17 03:28:12;;;;;;;90.82;36.03;;;;;;;;;;6289973;28;20472;-64
2022/10/17 03:31:15;;;;;;;95.75;38.70;;;;;;;;;;6286902;28;20072;-64
2022/10/17 03:34:17;;;;;;;;;;;;;;;;;;6283718;28;20144;-64
2022/10/17 03:37:18;;;;;;;82.65;34.22;;;;;;;;;;6286421;28;20268;-64
2022/10/17 03:40:18;;;;;;;96.07;35.28;;;;;;;;;;6289020;28;20041;-64
2022/10/17 03:43:19;;;;;;;91.22;35.15;;;;;;;;;;6288142;28;20067;-64
2022/10/17 03:46:19;;;;;;;94.15;35.80;;;;;;;;;;6289598;28;20036;-64
2022/10/17 03:49:20;;;;;;;84.18;34.88;;;;;;;;;;6291003;28;20414;-63
2022/10/17 03:52:20;;;;;;;82.45;33.58;;;;;;;;;;6289754;28;20467;-64
2022/10/17 03:55:21;;;;;;;80.95;31.70;;;;;;;;;;6290390;28;20048;-64
2022/10/17 03:58:21;;;;;;;70.30;29.77;;;;;;;;;;6286683;28;20044;-64
2022/10/17 04:01:23;;;;;;;69.63;30.25;;;;;;;;;;6289190;28;20152;-64
2022/10/17 04:04:23;;;;;;;72.28;30.92;;;;;;;;;;6288205;28;20395;-64
2022/10/17 04:07:24;;;;;;;75.03;29.65;;;;;;;;;;6287311;28;20087;-64
2022/10/17 04:10:24;;;;;;;72.18;29.85;;;;;;;;;;6285785;28;20052;-64
2022/10/17 04:13:26;;;;;;;74.15;30.48;;;;;;;;;;6285184;28;20068;-64
2022/10/17 04:16:27;;;;;;;76.80;32.23;;;;;;;;;;6284135;28;20541;-64
2022/10/17 04:19:27;;;;;;;78.18;32.05;;;;;;;;;;6285341;28;20110;-64
2022/10/17 04:22:28;;;;;;;78.50;30.52;;;;;;;;;;6286736;28;20044;-64
2022/10/17 04:25:29;;;;;;;71.03;29.50;;;;;;;;;;6283281;28;20397;-63
2022/10/17 04:28:30;;;;;;;74.55;31.20;;;;;;;;;;6285881;28;20046;-64
2022/10/17 04:31:31;;;;;;;76.07;32.10;;;;;;;;;;6287209;28;20135;-64
2022/10/17 04:34:31;;;;;;;76.90;31.58;;;;;;;;;;6288490;28;20047;-65
2022/10/17 04:37:32;;;;;;;78.80;30.35;;;;;;;;;;6276489;28;20125;-64
2022/10/17 04:40:32;;;;;;;61.92;27.55;;;;;;;;;;6286308;28;20048;-61
2022/10/17 04:43:36;;;;;;;67.18;31.17;;;;;;;;;;6285725;28;20078;-64
2022/10/17 04:46:36;;;;;;;80.28;31.70;;;;;;;;;;6285294;28;20090;-63
2022/10/17 04:49:37;;;;;;;78.35;32.45;;;;;;;;;;6284959;28;20052;-64
2022/10/17 04:52:37;;;;;;;73.90;31.67;;;;;;;;;;6285474;28;20044;-64
2022/10/17 04:55:38;;;;;;;75.68;30.50;;;;;;;;;;6282905;28;20204;-65
2022/10/17 04:58:39;;;;;;;72.43;30.20;;;;;;;;;;6286406;28;20380;-64
2022/10/17 05:01:40;;;;;;;80.13;30.53;;;;;;;;;;6284975;28;20123;-69
2022/10/17 05:04:40;;;;;;;84.65;33.15;;;;;;;;;;6289606;28;20054;-65
2022/10/17 05:07:41;;;;;;;82.57;32.13;;;;;;;;;;6287336;28;20048;-64
2022/10/17 05:10:44;;;;;;;79.55;32.03;;;;;;;;;;6286390;28;20054;-64
2022/10/17 05:13:52;;;;;;;83.88;33.17;;;;;;;;;;6285189;28;20049;-64
2022/10/17 05:16:53;;;;;;;80.43;31.95;;;;;;;;;;6284981;28;20498;-64
2022/10/17 05:19:53;;;;;;;74.28;32.05;;;;;;;;;;6287769;28;20045;-64
2022/10/17 05:22:54;;;;;;;85.00;33.00;;;;;;;;;;6284519;28;20430;-64
2022/10/17 05:25:55;;;;;;;88.20;33.78;;;;;;;;;;6288092;28;20037;-63
2022/10/17 05:28:57;;;;;;;95.82;35.30;;;;;;;;;;6281071;28;20052;-64
2022/10/17 05:31:58;;;;;;;81.35;33.10;;;;;;;;;;6286018;28;20143;-64
2022/10/17 05:34:58;;;;;;;109.82;37.70;;;;;;;;;;6285121;28;20057;-64
2022/10/17 05:37:59;;;;;;;95.20;37.25;;;;;;;;;;6282456;28;20059;-64
2022/10/17 05:41:01;;;;;;;104.50;41.03;;;;;;;;;;6284208;28;20101;-64
2022/10/17 05:44:02;;;;;;;;;;;;;;;;;;6284220;28;20140;-64
2022/10/17 05:47:02;;;;;;;91.47;35.60;;;;;;;;;;6283419;28;19928;-64
2022/10/17 05:50:03;;;;;;;89.35;35.88;;;;;;;;;;6288120;28;20128;-64
2022/10/17 05:53:04;;;;;;;93.88;34.97;;;;;;;;;;6284824;28;20060;-64
2022/10/17 05:56:06;;;;;;;91.22;36.13;;;;;;;;;;6281834;28;20431;-64
2022/10/17 05:59:07;;;;;;;113.10;43.75;;;;;;;;;;6283488;28;20044;-64
2022/10/17 06:02:11;;;;;;;116.43;42.65;;;;;;;;;;6284410;28;20660;-64
2022/10/17 06:05:12;;;;;;;111.80;44.20;;;;;;;;;;6288333;28;20041;-64
2022/10/17 06:08:13;;;;;;;110.50;42.35;;;;;;;;;;6288311;28;20068;-64
2022/10/17 06:11:14;;;;;;;110.07;42.08;;;;;;;;;;6290036;28;20405;-64
2022/10/17 06:14:14;;;;;;;104.88;40.53;;;;;;;;;;6287311;28;20411;-64
2022/10/17 06:17:15;;;;;;;92.55;36.10;;;;;;;;;;6289399;28;20134;-65
2022/10/17 06:20:16;;;;;;;107.53;41.63;;;;;;;;;;6290595;28;20052;-64
2022/10/17 06:23:16;;;;;;;110.15;44.25;;;;;;;;;;6289958;28;20522;-65
2022/10/17 06:26:18;;;;;;;136.35;48.28;;;;;;;;;;6287908;28;20050;-64
2022/10/17 06:29:18;;;;;;;150.65;53.10;;;;;;;;;;6288563;28;20048;-64
2022/10/17 06:32:19;;;;;;;135.23;51.13;;;;;;;;;;6286732;28;20083;-64
2022/10/17 06:35:20;;;;;;;129.45;49.28;;;;;;;;;;6286801;28;20139;-64
2022/10/17 06:38:21;;;;;;;133.70;48.40;;;;;;;;;;6286490;28;20040;-65
2022/10/17 06:41:21;;;;;;;118.63;46.05;;;;;;;;;;6288062;28;20059;-65
2022/10/17 06:44:24;;;;;;;153.35;53.28;;;;;;;;;;6287992;28;20055;-64
2022/10/17 06:47:24;;;;;;;140.50;53.75;;;;;;;;;;6286787;28;20060;-64
2022/10/17 06:50:25;;;;;;;154.05;55.33;;;;;;;;;;6289494;28;20488;-64
2022/10/17 06:53:27;;;;;;;150.95;56.05;;;;;;;;;;6288456;28;20051;-64
2022/10/17 06:56:28;;;;;;;147.10;53.40;;;;;;;;;;6285904;28;20232;-64
2022/10/17 06:59:28;;;;;;;134.73;50.58;;;;;;;;;;6288624;28;20044;-64
2022/10/17 07:02:29;;;;;;;120.55;48.13;;;;;;;;;;6288628;28;20048;-65
2022/10/17 07:05:29;;;;;;;115.63;46.95;;;;;;;;;;6285027;28;20117;-64
2022/10/17 07:08:30;;;;;;;119.20;44.72;;;;;;;;;;6286622;28;20052;-64
2022/10/17 07:11:32;;;;;;;120.22;45.78;;;;;;;;;;6286681;28;20040;-64
2022/10/17 07:14:34;;;;;;;118.40;48.35;;;;;;;;;;6284381;28;20064;-64
2022/10/17 07:17:34;;;;;;;116.13;48.80;;;;;;;;;;6287404;28;20139;-64
2022/10/17 07:20:35;;;;;;;115.88;46.55;;;;;;;;;;6289107;28;20492;-65
2022/10/17 07:23:36;;;;;;;116.53;45.97;;;;;;;;;;6287747;28;20056;-65
2022/10/17 07:26:37;;;;;;;114.80;45.70;;;;;;;;;;6286832;28;20135;-64
2022/10/17 07:29:37;;;;;;;115.20;47.50;;;;;;;;;;6290940;28;20056;-64
2022/10/17 07:32:38;;;;;;;109.85;43.60;;;;;;;;;;6286267;28;20535;-64
2022/10/17 07:35:39;;;;;;;105.57;44.22;;;;;;;;;;6287683;28;20083;-64
2022/10/17 07:38:41;;;;;;;101.32;41.17;;;;;;;;;;6287708;28;20053;-64
2022/10/17 07:41:41;;;;;;;98.70;40.13;;;;;;;;;;6289468;28;20059;-64
2022/10/17 07:44:44;;;;;;;104.28;42.80;;;;;;;;;;6286529;28;20045;-65
2022/10/17 07:47:45;;;;;;;99.90;40.47;;;;;;;;;;6283267;28;20044;-64
2022/10/17 07:50:46;;;;;;;89.88;35.70;;;;;;;;;;6290419;28;20055;-64
2022/10/17 07:53:46;;;;;;;92.53;34.53;;;;;;;;;;6284154;28;20395;-65
2022/10/17 07:56:49;;;;;;;80.40;34.58;;;;;;;;;;6284184;28;20571;-65
2022/10/17 07:59:50;;;;;;;85.78;34.72;;;;;;;;;;6286541;28;20052;-65
2022/10/17 08:02:51;;;;;;;85.95;34.25;;;;;;;;;;6285839;28;20079;-65
2022/10/17 08:05:51;;;;;;;93.38;35.65;;;;;;;;;;6285384;28;20554;-65
2022/10/17 08:08:52;;;;;;;77.63;32.85;;;;;;;;;;6286896;28;20412;-64
2022/10/17 08:11:52;;;;;;;76.93;32.20;;;;;;;;;;6286339;28;20069;-64
2022/10/17 08:14:53;;;;;;;77.73;31.67;;;;;;;;;;6284918;28;20076;-65
2022/10/17 08:17:54;;;;;;;76.85;33.58;;;;;;;;;;6284676;28;20043;-65
2022/10/17 08:20:58;;;;;;;76.60;31.95;;;;;;;;;;6285339;28;20115;-65
2022/10/17 08:24:00;;;;;;;70.45;30.45;;;;;;;;;;6284147;28;20052;-65
2022/10/17 08:27:02;;;;;;;72.40;29.92;;;;;;;;;;6283019;28;20037;-64
2022/10/17 08:30:03;;;;;;;63.33;28.10;;;;;;;;;;6287467;28;20048;-65
2022/10/17 08:33:04;;;;;;;66.40;28.70;;;;;;;;;;6286519;28;20098;-65
2022/10/17 08:36:05;;;;;;;64.55;27.90;;;;;;;;;;6291279;28;20055;-66
2022/10/17 08:39:06;;;;;;;63.40;28.98;;;;;;;;;;6292638;28;20064;-68
2022/10/17 08:42:07;;;;;;;63.30;26.75;;;;;;;;;;6293604;28;20048;-65
2022/10/17 08:45:19;;;;;;;69.80;27.75;;;;;;;;;;6292700;28;20041;-65
2022/10/17 08:48:23;;;;;;;62.70;26.15;;;;;;;;;;6285610;28;20057;-65
2022/10/17 08:51:28;;;;;;;54.67;25.63;;;;;;;;;;6287109;28;20139;-65
2022/10/17 08:54:45;;;;;;;57.40;25.13;;;;;;;;;;6287086;28;20044;-68
2022/10/17 08:57:47;;;;;;;56.60;26.48;;;;;;;;;;6282778;28;20446;-65
2022/10/17 09:00:59;;;;;;;;;;;;;;;;;;6285559;28;20045;-65
2022/10/17 09:04:19;;;;;;;;;;;;;;;;;;6286131;28;19927;-66
2022/10/17 09:07:46;;;;;;;69.30;27.42;;;;;;;;;;6286183;28;20019;-65
2022/10/17 09:10:54;;;;;;;69.97;27.98;;;;;;;;;;6282358;28;20186;-66
2022/10/17 09:14:24;;;;;;;55.05;23.83;;;;;;;;;;6282900;28;20049;-66
2022/10/17 09:17:42;;;;;;;52.95;24.77;;;;;;;;;;6284732;28;20147;-66
2022/10/17 09:20:51;;;;;;;58.72;24.20;;;;;;;;;;6285964;28;20712;-66
2022/10/17 09:23:56;;;;;;;58.42;25.73;;;;;;;;;;6284125;28;20044;-66
2022/10/17 09:26:57;;;;;;;58.88;25.70;;;;;;;;;;6282355;28;20135;-65
2022/10/17 09:30:21;;;;;;;53.03;23.23;;;;;;;;;;6285317;28;20121;-66
2022/10/17 09:33:29;;;;;;;54.63;24.08;;;;;;;;;;6279866;28;20052;-65
2022/10/17 09:36:32;;;;;;;56.00;24.83;;;;;;;;;;6284413;28;20053;-65
2022/10/17 09:39:32;;;;;;;55.45;24.15;;;;;;;;;;6284624;28;20045;-65
2022/10/17 09:42:34;;;;;;;52.72;24.73;;;;;;;;;;6284691;28;20048;-66
2022/10/17 09:45:48;;;;;;;53.85;24.05;;;;;;;;;;6283872;28;20121;-66
2022/10/17 09:49:14;;;;;;;51.10;22.48;;;;;;;;;;6282849;28;20189;-66
2022/10/17 09:52:23;;;;;;;56.78;21.98;;;;;;;;;;6283538;28;20049;-66
2022/10/17 09:55:56;;;;;;;45.58;18.92;;;;;;;;;;6284123;28;20047;-66
2022/10/17 09:58:57;;;;;;;47.95;20.15;;;;;;;;;;6242121;28;20120;-66
2022/10/17 10:02:15;;;;;;;49.13;20.80;;;;;;;;;;6282584;28;20061;-65
2022/10/17 10:05:19;;;;;;;41.90;19.70;;;;;;;;;;6284164;28;20415;-66
2022/10/17 10:08:23;;;;;;;41.70;18.92;;;;;;;;;;6282354;28;20040;-66
2022/10/17 10:11:42;;;;;;;38.60;18.77;;;;;;;;;;6287114;28;20044;-66
2022/10/17 10:14:45;;;;;;;43.58;20.20;;;;;;;;;;6283007;28;20525;-66
2022/10/17 10:17:45;;;;;;;45.63;19.95;;;;;;;;;;6285848;28;20489;-66
2022/10/17 10:20:46;;;;;;;42.75;20.63;;;;;;;;;;6283701;28;20143;-66
2022/10/17 10:24:11;;;;;;;45.23;21.17;;;;;;;;;;6279420;28;20744;-67
2022/10/17 10:27:15;;;;;;;46.58;20.45;;;;;;;;;;6281548;28;20040;-66
2022/10/17 10:30:19;;;;;;;45.30;20.02;;;;;;;;;;6282768;28;20431;-66
2022/10/17 10:33:22;;;;;;;42.58;20.35;;;;;;;;;;6284035;28;20079;-66
2022/10/17 10:36:22;;;;;;;45.42;21.05;;;;;;;;;;6282503;28;20480;-66
2022/10/17 10:39:32;;;;;;;50.90;22.53;;;;;;;;;;6283335;28;20051;-66
2022/10/17 10:42:40;;;;;;;46.35;20.98;;;;;;;;;;6283252;28;20040;-66
2022/10/17 10:45:41;;;;;;;48.35;22.60;;;;;;;;;;6282742;28;20051;-66
2022/10/17 10:49:27;;;;;;;51.28;23.77;;;;;;;;;;6286205;28;20040;-66
2022/10/17 10:52:36;;;;;;;54.10;23.30;;;;;;;;;;6288979;28;20131;-66
2022/10/17 10:55:50;;;;;;;52.60;23.33;;;;;;;;;;6288970;28;20135;-66
2022/10/17 10:59:02;;;;;;;49.38;23.20;;;;;;;;;;6286812;28;20187;-66
2022/10/17 11:02:09;;;;;;;48.65;23.15;;;;;;;;;;6286989;28;20052;-66
2022/10/17 11:05:10;;;;;;;46.75;22.33;;;;;;;;;;6289092;28;20085;-66
2022/10/17 11:08:20;;;;;;;54.43;24.27;;;;;;;;;;6289099;28;20388;-66
2022/10/17 11:11:32;;;;;;;49.88;22.77;;;;;;;;;;6284747;28;20398;-65
2022/10/17 11:14:50;;;;;;;50.17;23.88;;;;;;;;;;6287296;28;20127;-65
2022/10/17 11:17:54;;;;;;;49.40;21.35;;;;;;;;;;6288032;28;20040;-65
2022/10/17 11:21:03;;;;;;;49.72;22.98;;;;;;;;;;6288977;28;20044;-66
2022/10/17 11:24:15;;;;;;;50.00;21.65;;;;;;;;;;6285292;28;20051;-65
2022/10/17 11:27:15;;;;;;;47.58;21.67;;;;;;;;;;6284312;28;20071;-66
2022/10/17 11:30:16;;;;;;;55.77;23.20;;;;;;;;;;6287947;28;20048;-65
2022/10/17 11:33:52;;;;;;;43.70;20.83;;;;;;;;;;6286894;28;20051;-66
2022/10/17 11:37:01;;;;;;;47.35;22.73;;;;;;;;;;6266832;28;20513;-65
2022/10/17 11:40:08;;;;;;;45.55;20.60;;;;;;;;;;6290934;28;20064;-65
2022/10/17 11:43:15;;;;;;;51.10;22.38;;;;;;;;;;6295089;28;20058;-65
2022/10/17 11:46:22;;;;;;;45.70;20.65;;;;;;;;;;6281550;28;20605;-65
2022/10/17 11:49:34;;;;;;;48.05;20.50;;;;;;;;;;6284774;28;20430;-65
2022/10/17 11:52:47;;;;;;;43.53;19.40;;;;;;;;;;6286609;28;20140;-66
2022/10/17 11:55:49;;;;;;;40.38;20.45;;;;;;;;;;6286921;28;20057;-66
2022/10/17 11:58:49;;;;;;;;;;;;;;;;;;6283758;28;20059;-65
2022/10/17 12:02:00;;;;;;;45.72;20.13;;;;;;;;;;6286481;28;19963;-65
2022/10/17 12:05:26;;;;;;;39.35;18.85;;;;;;;;;;6285738;28;20074;-65
2022/10/17 12:08:48;;;;;;;38.72;18.77;;;;;;;;;;6282501;28;20155;-65
2022/10/17 12:11:56;;;;;;;32.47;17.55;;;;;;;;;;6285304;28;20055;-65
2022/10/17 12:15:22;;;;;;;40.63;17.02;;;;;;;;;;6286335;28;20127;-67
2022/10/17 12:18:26;;;;;;;33.50;16.83;;;;;;;;;;6285168;28;20048;-65
2022/10/17 12:21:27;;;;;;;35.03;15.57;;;;;;;;;;6286801;28;20048;-66
2022/10/17 12:24:32;;;;;;;29.07;15.20;;;;;;;;;;6285001;28;20044;-66
2022/10/17 12:27:47;;;;;;;33.17;15.23;;;;;;;;;;6285343;28;20870;-65
2022/10/17 12:30:54;;;;;;;31.52;14.90;;;;;;;;;;6286078;28;20056;-65
2022/10/17 12:33:56;;;;;;;33.08;15.82;;;;;;;;;;6286018;28;20048;-66
2022/10/17 12:36:57;;;;;;;32.50;15.13;;;;;;;;;;6282128;28;20082;-65
2022/10/17 12:39:57;;;;;;;33.77;15.17;;;;;;;;;;6285924;28;20491;-65
2022/10/17 12:42:58;;;;;;;35.10;15.23;;;;;;;;;;6284762;28;20052;-65
2022/10/17 12:46:03;;;;;;;32.73;15.00;;;;;;;;;;6284539;28;20076;-65
2022/10/17 12:49:18;;;;;;;27.15;14.40;;;;;;;;;;6285754;28;20517;-65
2022/10/17 12:52:31;;;;;;;28.13;14.70;;;;;;;;;;6286362;28;20054;-65
2022/10/17 12:55:32;;;;;;;31.08;14.77;;;;;;;;;;6284951;28;20487;-65
2022/10/17 12:58:34;;;;;;;32.77;14.97;;;;;;;;;;6283422;28;20047;-65
2022/10/17 13:01:37;;;;;;;28.67;14.20;;;;;;;;;;6284554;28;20080;-65
2022/10/17 13:04:38;;;;;;;31.80;15.57;;;;;;;;;;6284856;28;20131;-65
2022/10/17 13:07:41;;;;;;;28.87;13.87;;;;;;;;;;6284307;28;20059;-65
2022/10/17 13:10:45;;;;;;;30.75;14.63;;;;;;;;;;6285719;28;20045;-65
2022/10/17 13:13:47;;;;;;;33.25;14.68;;;;;;;;;;6285828;28;20056;-65
2022/10/17 13:16:56;;;;;;;33.72;14.00;;;;;;;;;;6284511;28;20081;-65
2022/10/17 13:19:57;;;;;;;26.95;13.13;;;;;;;;;;6282453;28;20572;-65
2022/10/17 13:22:58;;;;;;;30.77;12.90;;;;;;;;;;6283623;28;20052;-65
2022/10/17 13:26:19;;;;;;;26.20;13.27;;;;;;;;;;6285364;28;20056;-65
2022/10/17 13:29:20;;;;;;;30.98;13.15;;;;;;;;;;6282528;28;20123;-65
2022/10/17 13:32:22;;;;;;;26.70;12.07;;;;;;;;;;6282287;28;20068;-65
2022/10/17 13:35:30;;;;;;;24.95;12.90;;;;;;;;;;6285395;28;20117;-65
2022/10/17 13:38:32;;;;;;;25.77;12.93;;;;;;;;;;6283994;28;20044;-66
2022/10/17 13:41:34;;;;;;;28.02;12.18;;;;;;;;;;6284852;28;20044;-65
2022/10/17 13:44:35;;;;;;;25.00;12.75;;;;;;;;;;6286060;28;20500;-66
2022/10/17 13:47:38;;;;;;;28.60;12.63;;;;;;;;;;6284677;28;20049;-66
2022/10/17 13:50:40;;;;;;;27.95;12.73;;;;;;;;;;6281937;28;20052;-65
2022/10/17 13:53:43;;;;;;;30.10;13.07;;;;;;;;;;6277056;28;20174;-65
2022/10/17 13:56:44;;;;;;;26.17;12.48;;;;;;;;;;6281040;28;20048;-65
2022/10/17 13:59:50;;;;;;;23.75;12.23;;;;;;;;;;6281894;28;20054;-65
2022/10/17 14:02:50;;;;;;;24.15;12.40;;;;;;;;;;6260963;28;20510;-65
2022/10/17 14:06:17;;;;;;;25.77;12.13;;;;;;;;;;6267621;28;20049;-65
2022/10/17 14:09:17;;;;;;;24.15;12.35;;;;;;;;;;6262060;28;20049;-66
2022/10/17 14:12:19;;;;;;;25.00;12.40;;;;;;;;;;6261363;28;20044;-65
2022/10/17 14:15:24;;;;;;;23.13;11.88;;;;;;;;;;6271499;28;20469;-64
2022/10/17 14:18:30;;;;;;;24.58;12.18;;;;;;;;;;6266953;28;20052;-65
2022/10/17 14:21:31;;;;;;;24.70;11.57;;;;;;;;;;6264951;28;20055;-65
2022/10/17 14:24:34;;;;;;;27.17;12.63;;;;;;;;;;6271196;28;20037;-63
2022/10/17 14:27:51;;;;;;;25.17;11.48;;;;;;;;;;6268105;28;20057;-64
2022/10/17 14:30:53;;;;;;;27.48;12.02;;;;;;;;;;6272651;28;20060;-64
2022/10/17 14:33:54;;;;;;;25.20;11.50;;;;;;;;;;6268747;28;20063;-66
2022/10/17 14:36:55;;;;;;;29.05;11.80;;;;;;;;;;6276254;28;20143;-65
2022/10/17 14:39:59;;;;;;;26.87;12.53;;;;;;;;;;6278020;28;21390;-65
2022/10/17 14:43:04;;;;;;;27.90;11.70;;;;;;;;;;6270819;28;20048;-65
2022/10/17 14:46:05;;;;;;;23.42;12.30;;;;;;;;;;6272978;28;20049;-65
2022/10/17 14:49:15;;;;;;;25.00;11.00;;;;;;;;;;6270509;28;20086;-66
2022/10/17 14:52:16;;;;;;;22.92;10.77;;;;;;;;;;6271935;28;20420;-65
2022/10/17 14:55:23;;;;;;;23.87;11.33;;;;;;;;;;6273714;28;20048;-64
2022/10/17 14:58:31;;;;;;;26.48;11.50;;;;;;;;;;6277012;28;20060;-67
2022/10/17 15:01:33;;;;;;;25.02;11.40;;;;;;;;;;6271259;28;20135;-64
2022/10/17 15:04:34;;;;;;;;;;;;;;;;;;6274248;28;20388;-65
2022/10/17 15:07:34;;;;;;;28.55;11.73;;;;;;;;;;6273701;28;19928;-68
2022/10/17 15:10:36;;;;;;;29.47;12.67;;;;;;;;;;6274755;28;20091;-66
2022/10/17 15:13:37;;;;;;;29.73;13.23;;;;;;;;;;6274325;28;20140;-69
2022/10/17 15:16:38;;;;;;;28.17;12.07;;;;;;;;;;6275034;28;20041;-68
2022/10/17 15:19:38;;;;;;;27.53;11.63;;;;;;;;;;6275020;28;20057;-67
2022/10/17 15:22:39;;;;;;;25.53;11.90;;;;;;;;;;6271284;28;20052;-64
2022/10/17 15:25:40;;;;;;;27.60;12.80;;;;;;;;;;6273266;28;20547;-62
2022/10/17 15:28:41;;;;;;;26.47;13.10;;;;;;;;;;6276746;28;20055;-62
2022/10/17 15:31:42;;;;;;;30.20;12.55;;;;;;;;;;6271354;28;20062;-62
2022/10/17 15:34:43;;;;;;;41.30;20.40;;;;;;;;;;6271392;28;20048;-63
2022/10/17 15:37:45;;;;;;;87.25;46.92;;;;;;;;;;6276765;28;20049;-62
2022/10/17 15:40:49;;;;;;;151.52;72.93;;;;;;;;;;6274155;28;20060;-61
2022/10/17 15:43:50;;;;;;;121.50;53.40;;;;;;;;;;6274777;28;20077;-65
2022/10/17 15:46:50;;;;;;;95.77;39.13;;;;;;;;;;6276354;28;20087;-62
2022/10/17 15:49:52;;;;;;;60.67;21.73;;;;;;;;;;6277890;28;20052;-61
2022/10/17 15:52:53;;;;;;;;;;;;;;;;;;6271551;28;20053;-63
2022/10/17 15:55:54;;;;;;;74.65;29.65;;;;;;;;;;6273867;28;19928;-62
2022/10/17 15:58:55;;;;;;;80.43;35.77;;;;;;;;;;6277730;28;20060;-62
2022/10/17 16:01:55;;;;;;;128.95;57.80;;;;;;;;;;6271191;28;20171;-70
2022/10/17 16:04:56;;;;;;;314.23;130.03;;;;;;;;;;6274500;28;20135;-65
2022/10/17 16:07:57;;;;;;;289.60;102.97;;;;;;;;;;6273250;28;20107;-62
2022/10/17 16:10:57;;;;;;;280.97;107.97;;;;;;;;;;6273935;28;20519;-63
2022/10/17 16:14:01;;;;;;;390.93;130.87;;;;;;;;;;6274618;28;20123;-62
2022/10/17 16:17:02;;;;;;;247.90;79.78;;;;;;;;;;6267868;28;20511;-63
2022/10/17 16:20:03;;;;;;;233.67;73.57;;;;;;;;;;6269722;28;20053;-62
2022/10/17 16:23:04;;;;;;;184.80;62.30;;;;;;;;;;6268238;28;20472;-62
2022/10/17 16:26:06;;;;;;;172.43;57.30;;;;;;;;;;6269324;28;20060;-62
2022/10/17 16:29:08;;;;;;;96.47;34.85;;;;;;;;;;6269280;28;20141;-63
2022/10/17 16:32:09;;;;;;;92.88;34.60;;;;;;;;;;6267774;28;20090;-64
2022/10/17 16:35:18;;;;;;;91.75;33.97;;;;;;;;;;6268921;28;20041;-64
2022/10/17 16:38:19;;;;;;;71.05;28.65;;;;;;;;;;6266149;28;20175;-64
2022/10/17 16:41:30;;;;;;;61.22;26.08;;;;;;;;;;6267924;28;20063;-64
2022/10/17 16:44:31;;;;;;;50.83;21.30;;;;;;;;;;6270811;28;20404;-64
2022/10/17 16:47:31;;;;;;;51.83;19.60;;;;;;;;;;6272178;28;20044;-65
2022/10/17 16:50:34;;;;;;;43.13;17.98;;;;;;;;;;6272626;28;20192;-64
2022/10/17 16:53:38;;;;;;;39.38;16.35;;;;;;;;;;6271437;28;20047;-63
2022/10/17 16:56:40;;;;;;;39.05;16.77;;;;;;;;;;6270708;28;20048;-64
2022/10/17 16:59:41;;;;;;;;;;;;;;;;;;6270848;28;20537;-64
2022/10/17 17:02:42;;;;;;;36.08;15.48;;;;;;;;;;6270502;28;19924;-64
2022/10/17 17:05:49;;;;;;;35.03;15.68;;;;;;;;;;6272215;28;20041;-64
2022/10/17 17:08:50;;;;;;;39.45;16.60;;;;;;;;;;6271195;28;20056;-64
2022/10/17 17:11:50;;;;;;;45.45;17.30;;;;;;;;;;6268988;28;20044;-64
2022/10/17 17:14:51;;;;;;;44.03;17.35;;;;;;;;;;6273790;28;20045;-64
2022/10/17 17:17:51;;;;;;;39.67;16.48;;;;;;;;;;6272310;28;20049;-67
2022/10/17 17:20:57;;;;;;;32.10;13.97;;;;;;;;;;6272155;28;20598;-64
2022/10/17 17:23:59;;;;;;;38.13;17.08;;;;;;;;;;6269395;28;20057;-64
2022/10/17 17:27:00;;;;;;;37.78;17.88;;;;;;;;;;6268544;28;20744;-64
2022/10/17 17:30:00;;;;;;;30.50;13.52;;;;;;;;;;6264874;28;20060;-64
2022/10/17 17:33:01;;;;;;;30.73;13.48;;;;;;;;;;6267539;28;20052;-64
2022/10/17 17:36:02;;;;;;;32.33;14.25;;;;;;;;;;6271913;28;20472;-63
2022/10/17 17:39:05;;;;;;;30.38;13.32;;;;;;;;;;6270473;28;20053;-64
2022/10/17 17:42:06;;;;;;;28.73;14.00;;;;;;;;;;6263604;28;20071;-65
2022/10/17 17:45:07;;;;;;;32.35;13.88;;;;;;;;;;6271058;28;20052;-63
2022/10/17 17:48:08;;;;;;;30.10;14.23;;;;;;;;;;6268417;28;20065;-64
2022/10/17 17:51:11;;;;;;;35.17;14.95;;;;;;;;;;6272979;28;20055;-65
2022/10/17 17:54:13;;;;;;;36.42;16.77;;;;;;;;;;6268312;28;20049;-65
2022/10/17 17:57:13;;;;;;;41.47;17.63;;;;;;;;;;6271157;28;20044;-62